Time;durP1;ratioP1;P1;durP2;ratioP2;P2;SDS_P1;SDS_P2;PMS_P1;PMS_P2;Temp;Humidity;BMP_temperature;BMP_pressure;BME280_temperature;BME280_humidity;BME280_pressure;Samples;Min_cycle;Max_cycle;Signal;HPM_P1;HPM_P2
2023/03/21 00:00:34;;;;;;;5.57;2.08;;;17.60;49.70;;;;;;5074983;28;20229;-69
2023/03/21 00:03:01;;;;;;;6.68;2.03;;;17.50;49.50;;;;;;5074843;28;20282;-72
2023/03/21 00:05:28;;;;;;;6.65;2.13;;;17.50;49.50;;;;;;5075321;28;20649;-70
2023/03/21 00:07:57;;;;;;;9.45;2.97;;;17.50;49.50;;;;;;5075263;28;20256;-70
2023/03/21 00:10:24;;;;;;;4.95;2.00;;;17.50;49.50;;;;;;5075249;28;20236;-72
2023/03/21 00:12:57;;;;;;;5.75;1.90;;;17.50;49.50;;;;;;5075489;28;20195;-71
2023/03/21 00:15:26;;;;;;;5.35;1.85;;;17.50;49.50;;;;;;5074771;28;20257;-70
2023/03/21 00:17:57;;;;;;;4.22;1.95;;;17.50;49.50;;;;;;5074860;28;20234;-68
2023/03/21 00:20:24;;;;;;;5.68;1.92;;;17.50;49.40;;;;;;5074784;28;20183;-68
2023/03/21 00:22:51;;;;;;;5.22;1.80;;;17.50;49.40;;;;;;5074850;28;20233;-69
2023/03/21 00:25:20;;;;;;;5.13;1.63;;;17.50;49.40;;;;;;5075204;28;20712;-79
2023/03/21 00:27:47;;;;;;;4.18;1.88;;;17.50;49.40;;;;;;5074640;28;20195;-79
2023/03/21 00:30:15;;;;;;;5.80;2.10;;;17.50;49.40;;;;;;5075036;28;20260;-79
2023/03/21 00:32:42;;;;;;;4.40;1.70;;;17.50;49.40;;;;;;5074994;28;20201;-80
2023/03/21 00:35:09;;;;;;;5.15;1.83;;;17.50;49.40;;;;;;5074857;28;20218;-80
2023/03/21 00:37:36;;;;;;;3.65;1.98;;;17.50;49.40;;;;;;5074581;28;20215;-79
2023/03/21 00:40:07;;;;;;;4.72;1.70;;;17.50;49.30;;;;;;5073992;28;20268;-80
2023/03/21 00:42:37;;;;;;;6.35;2.00;;;17.50;49.30;;;;;;5074585;28;20604;-77
2023/03/21 00:45:05;;;;;;;5.57;2.17;;;17.50;49.30;;;;;;5074435;28;20603;-80
2023/03/21 00:47:32;;;;;;;4.80;1.90;;;17.50;49.30;;;;;;5074990;28;20191;-80
2023/03/21 00:49:59;;;;;;;4.55;1.70;;;17.40;49.20;;;;;;5089345;28;20632;-80
2023/03/21 00:52:26;;;;;;;4.90;1.85;;;17.40;49.20;;;;;;5077550;28;20706;-80
2023/03/21 00:54:53;;;;;;;6.68;1.70;;;17.50;49.30;;;;;;5074365;28;20219;-80
2023/03/21 00:57:20;;;;;;;4.30;1.90;;;17.40;49.80;;;;;;5074143;28;20265;-80
2023/03/21 00:59:49;;;;;;;6.28;1.88;;;17.50;49.20;;;;;;5074141;28;20260;-80
2023/03/21 01:02:21;;;;;;;7.13;1.83;;;17.40;49.10;;;;;;5074508;28;20719;-80
2023/03/21 01:04:49;;;;;;;4.38;1.67;;;17.40;49.10;;;;;;5074313;28;20223;-80
2023/03/21 01:07:16;;;;;;;4.38;1.90;;;17.40;49.10;;;;;;5073555;28;20197;-80
2023/03/21 01:09:43;;;;;;;5.38;1.58;;;17.40;49.10;;;;;;5073967;28;20211;-80
2023/03/21 01:12:10;;;;;;;3.78;1.48;;;17.40;49.10;;;;;;5073966;28;20285;-81
2023/03/21 01:14:38;;;;;;;3.50;1.48;;;17.40;49.10;;;;;;5072294;28;20219;-79
2023/03/21 01:17:07;;;;;;;4.20;1.60;;;17.40;49.10;;;;;;5073645;28;20218;-80
2023/03/21 01:19:34;;;;;;;3.22;1.60;;;17.40;49.10;;;;;;5074296;28;20223;-80
2023/03/21 01:22:01;;;;;;;4.88;1.80;;;17.40;49.10;;;;;;5073759;28;20190;-80
2023/03/21 01:24:29;;;;;;;3.95;1.63;;;17.40;49.10;;;;;;5074036;28;20223;-80
2023/03/21 01:26:56;;;;;;;3.83;1.83;;;17.40;49.10;;;;;;5073636;28;20248;-79
2023/03/21 01:29:23;;;;;;;3.78;1.50;;;17.40;49.10;;;;;;5074010;28;20253;-80
2023/03/21 01:31:50;;;;;;;2.22;1.50;;;17.30;49.00;;;;;;5073720;28;20190;-80
2023/03/21 01:34:19;;;;;;;5.55;1.70;;;17.30;49.00;;;;;;5073429;28;20256;-79
2023/03/21 01:36:46;;;;;;;4.03;1.73;;;17.40;49.10;;;;;;5073628;28;20236;-80
2023/03/21 01:39:13;;;;;;;6.15;1.90;;;17.30;49.00;;;;;;5073078;28;20256;-80
2023/03/21 01:41:42;;;;;;;4.00;1.40;;;17.30;49.00;;;;;;5074051;28;20240;-80
2023/03/21 01:44:14;;;;;;;4.22;1.92;;;17.30;49.00;;;;;;5073639;28;20704;-80
2023/03/21 01:46:43;;;;;;;4.00;1.52;;;17.30;49.00;;;;;;5073124;28;20635;-79
2023/03/21 01:49:17;;;;;;;3.47;1.70;;;17.30;49.00;;;;;;5081599;28;20213;-80
2023/03/21 01:51:50;;;;;;;3.05;1.55;;;17.30;49.00;;;;;;5085517;28;20190;-80
2023/03/21 01:54:23;;;;;;;5.15;1.90;;;17.30;49.00;;;;;;5073160;28;20829;-80
2023/03/21 01:56:53;;;;;;;5.93;1.52;;;17.30;49.00;;;;;;5073172;28;20211;-80
2023/03/21 01:59:25;;;;;;;4.10;1.60;;;17.30;49.00;;;;;;5073022;28;20257;-80
2023/03/21 02:01:52;;;;;;;5.22;2.28;;;17.30;49.00;;;;;;5073120;28;20187;-80
2023/03/21 02:04:26;;;;;;;2.92;1.40;;;17.30;49.00;;;;;;5072438;28;20244;-80
2023/03/21 02:07:00;;;;;;;2.58;1.88;;;17.30;49.00;;;;;;5073059;28;20206;-80
2023/03/21 02:09:32;;;;;;;4.78;1.38;;;17.30;49.00;;;;;;5072987;28;20214;-79
2023/03/21 02:12:00;;;;;;;3.83;1.85;;;17.30;48.90;;;;;;5073208;28;20205;-80
2023/03/21 02:14:30;;;;;;;3.50;1.67;;;17.30;49.00;;;;;;5072591;28;20272;-80
2023/03/21 02:17:05;;;;;;;3.50;1.65;;;17.30;48.90;;;;;;5071508;28;20257;-81
2023/03/21 02:20:20;;;;;;;3.67;1.90;;;17.30;49.00;;;;;;5072541;28;20570;-80
2023/03/21 02:23:23;;;;;;;2.28;1.50;;;17.30;48.90;;;;;;5010712;28;20654;-80
2023/03/21 02:26:30;;;;;;;5.47;1.50;;;17.30;48.90;;;;;;5070089;28;20195;-76
2023/03/21 02:29:02;;;;;;;3.22;1.50;;;17.20;48.90;;;;;;5067023;28;20222;-79
2023/03/21 02:31:39;;;;;;;3.20;1.60;;;17.30;48.90;;;;;;5072688;28;20194;-79
2023/03/21 02:34:38;;;;;;;3.13;1.75;;;17.30;48.90;;;;;;5072526;28;20343;-81
2023/03/21 02:37:16;;;;;;;2.05;1.42;;;17.30;48.90;;;;;;5072233;28;20690;-79
2023/03/21 02:39:53;;;;;;;4.03;1.67;;;17.20;48.90;;;;;;5071798;28;20236;-81
2023/03/21 02:42:27;;;;;;;3.17;1.50;;;17.20;48.90;;;;;;5072628;28;20183;-78
2023/03/21 02:45:00;;;;;;;2.83;1.52;;;17.20;48.90;;;;;;5072291;28;20214;-79
2023/03/21 02:47:33;;;;;;;2.78;1.58;;;17.30;49.00;;;;;;5072598;28;20225;-79
2023/03/21 02:50:09;;;;;;;5.28;1.35;;;17.20;48.90;;;;;;5087448;28;20243;-79
2023/03/21 02:52:40;;;;;;;3.83;1.50;;;17.20;48.80;;;;;;5080864;28;20226;-77
2023/03/21 02:55:14;;;;;;;3.42;1.55;;;17.20;48.90;;;;;;5072540;28;20242;-77
2023/03/21 02:57:43;;;;;;;3.80;1.40;;;17.20;48.90;;;;;;5072286;28;20301;-79
2023/03/21 03:00:16;;;;;;;4.57;1.75;;;17.30;49.00;;;;;;5072651;28;20279;-80
2023/03/21 03:02:43;;;;;;;5.40;1.45;;;17.20;48.90;;;;;;5072102;28;20183;-75
2023/03/21 03:05:16;;;;;;;4.13;1.65;;;17.20;48.90;;;;;;5071781;28;20218;-74
2023/03/21 03:08:16;;;;;;;4.85;1.40;;;17.20;48.90;;;;;;5072082;28;20645;-75
2023/03/21 03:10:54;;;;;;;2.95;1.73;;;17.20;48.90;;;;;;5056651;28;20691;-75
2023/03/21 03:13:33;;;;;;;4.80;1.60;;;17.20;49.00;;;;;;5072205;28;20646;-80
2023/03/21 03:16:10;;;;;;;3.25;1.42;;;17.30;49.00;;;;;;5071658;28;20311;-80
2023/03/21 03:18:46;;;;;;;4.22;1.33;;;17.20;48.90;;;;;;5072139;28;20214;-80
2023/03/21 03:21:20;;;;;;;4.68;1.58;;;17.20;48.90;;;;;;5072083;28;20247;-80
2023/03/21 03:23:53;;;;;;;3.75;1.60;;;17.20;48.90;;;;;;5072204;28;20225;-80
2023/03/21 03:26:23;;;;;;;3.75;1.65;;;17.20;49.00;;;;;;5072140;28;20183;-80
2023/03/21 03:28:53;;;;;;;3.78;1.50;;;17.20;48.90;;;;;;5072794;28;20226;-79
2023/03/21 03:31:25;;;;;;;2.00;1.38;;;17.20;48.90;;;;;;5076138;28;20187;-79
2023/03/21 03:33:55;;;;;;;3.88;1.65;;;17.20;49.00;;;;;;5076088;28;20221;-79
2023/03/21 03:36:27;;;;;;;4.75;1.50;;;17.20;48.90;;;;;;5076063;28;20190;-78
2023/03/21 03:38:57;;;;;;;4.65;1.50;;;17.20;49.00;;;;;;5075625;28;20249;-70
2023/03/21 03:41:27;;;;;;;2.75;1.65;;;17.20;48.90;;;;;;5075516;28;20268;-67
2023/03/21 03:43:57;;;;;;;3.00;1.60;;;17.20;49.00;;;;;;5075552;28;20264;-77
2023/03/21 03:46:30;;;;;;;3.53;1.50;;;17.20;49.00;;;;;;5075538;28;20184;-78
2023/03/21 03:49:01;;;;;;;5.15;1.40;;;17.20;49.00;;;;;;5081853;28;20756;-68
2023/03/21 03:51:33;;;;;;;2.10;1.50;;;17.20;49.00;;;;;;5095776;28;20230;-69
2023/03/21 03:54:06;;;;;;;3.17;1.55;;;17.20;49.10;;;;;;5075351;28;20225;-66
2023/03/21 03:56:33;;;;;;;2.17;1.25;;;17.20;49.10;;;;;;5075519;28;20770;-75
2023/03/21 03:59:04;;;;;;;3.95;2.17;;;17.20;49.10;;;;;;5075144;28;20233;-77
2023/03/21 04:01:31;;;;;;;3.42;1.50;;;17.20;49.10;;;;;;5075570;28;20570;-78
2023/03/21 04:03:59;;;;;;;2.83;1.48;;;17.20;49.10;;;;;;5075123;28;20219;-77
2023/03/21 04:06:27;;;;;;;2.35;1.70;;;17.20;49.10;;;;;;5075499;28;20197;-78
2023/03/21 04:08:55;;;;;;;2.60;1.50;;;17.20;49.10;;;;;;5075225;28;20222;-78
2023/03/21 04:11:24;;;;;;;2.17;1.52;;;17.20;49.20;;;;;;5075342;28;20260;-78
2023/03/21 04:13:51;;;;;;;3.03;1.23;;;17.20;49.20;;;;;;5074939;28;20210;-77
2023/03/21 04:16:18;;;;;;;4.93;1.85;;;17.20;49.20;;;;;;5074542;28;20195;-78
2023/03/21 04:18:46;;;;;;;3.10;1.35;;;17.20;49.20;;;;;;5075076;28;20272;-76
2023/03/21 04:21:14;;;;;;;3.50;1.70;;;17.20;49.30;;;;;;5075199;28;20290;-77
2023/03/21 04:23:42;;;;;;;4.55;1.63;;;17.20;49.30;;;;;;5074739;28;20676;-77
2023/03/21 04:26:09;;;;;;;3.13;1.58;;;17.10;49.30;;;;;;5075060;28;20183;-78
2023/03/21 04:28:38;;;;;;;3.15;1.38;;;17.20;49.30;;;;;;5074570;28;20191;-77
2023/03/21 04:31:06;;;;;;;3.03;1.40;;;17.20;49.30;;;;;;5074701;28;20282;-78
2023/03/21 04:33:37;;;;;;;3.65;1.48;;;17.20;49.40;;;;;;5074821;28;20207;-77
2023/03/21 04:36:06;;;;;;;3.72;1.40;;;17.10;49.30;;;;;;5074696;28;20194;-78
2023/03/21 04:38:33;;;;;;;3.28;1.60;;;17.10;49.30;;;;;;5074432;28;20239;-78
2023/03/21 04:41:00;;;;;;;3.20;1.27;;;17.10;49.30;;;;;;5073388;28;20673;-77
2023/03/21 04:43:28;;;;;;;2.80;1.40;;;17.10;49.40;;;;;;5074797;28;20195;-78
2023/03/21 04:45:57;;;;;;;3.75;1.48;;;17.10;49.40;;;;;;5074880;28;20225;-78
2023/03/21 04:48:24;;;;;;;3.30;1.48;;;17.10;49.40;;;;;;5076079;28;20236;-77
2023/03/21 04:50:52;;;;;;;7.03;1.70;;;17.10;49.40;;;;;;5094496;28;20214;-78
2023/03/21 04:53:19;;;;;;;3.88;1.48;;;17.10;49.50;;;;;;5083357;28;20191;-78
2023/03/21 04:55:46;;;;;;;2.65;1.40;;;17.10;49.50;;;;;;5074308;28;20696;-77
2023/03/21 04:58:13;;;;;;;3.75;1.73;;;17.10;49.50;;;;;;5074278;28;20215;-77
2023/03/21 05:00:40;;;;;;;4.90;1.23;;;17.10;49.50;;;;;;5074488;28;20223;-77
2023/03/21 05:03:09;;;;;;;5.05;1.73;;;17.10;49.50;;;;;;5074011;28;20183;-78
2023/03/21 05:05:37;;;;;;;4.38;1.30;;;17.10;49.60;;;;;;5073899;28;20215;-78
2023/03/21 05:08:06;;;;;;;4.53;1.60;;;17.10;49.50;;;;;;5073973;28;20652;-77
2023/03/21 05:10:33;;;;;;;2.00;1.20;;;17.10;49.50;;;;;;5074215;28;20222;-78
2023/03/21 05:13:00;;;;;;;2.92;1.25;;;17.10;49.60;;;;;;5074215;28;20194;-78
2023/03/21 05:15:28;;;;;;;2.30;1.60;;;17.10;49.60;;;;;;5074161;28;20214;-78
2023/03/21 05:17:57;;;;;;;3.70;1.60;;;17.10;49.60;;;;;;5073457;28;20268;-78
2023/03/21 05:20:26;;;;;;;2.70;1.42;;;17.10;49.60;;;;;;5073786;28;20223;-77
2023/03/21 05:22:54;;;;;;;3.08;1.50;;;17.10;49.70;;;;;;5074035;28;20248;-78
2023/03/21 05:25:33;;;;;;;2.60;1.38;;;17.10;49.70;;;;;;5074102;28;20264;-77
2023/03/21 05:28:01;;;;;;;2.63;1.45;;;17.10;49.70;;;;;;5073532;28;20656;-77
2023/03/21 05:30:29;;;;;;;2.85;1.27;;;17.10;49.80;;;;;;5073317;28;20700;-77
2023/03/21 05:32:56;;;;;;;2.22;1.42;;;17.10;49.80;;;;;;5073846;28;20187;-75
2023/03/21 05:35:25;;;;;;;3.00;1.40;;;17.10;49.80;;;;;;5073972;28;20214;-78
2023/03/21 05:37:52;;;;;;;1.63;1.35;;;17.10;49.90;;;;;;5073483;28;20234;-77
2023/03/21 05:40:20;;;;;;;2.80;1.30;;;17.10;49.90;;;;;;5073473;28;20221;-78
2023/03/21 05:42:47;;;;;;;3.05;1.40;;;17.10;49.80;;;;;;5073338;28;20191;-76
2023/03/21 05:45:14;;;;;;;2.28;1.15;;;17.10;49.90;;;;;;5073618;28;20223;-77
2023/03/21 05:47:42;;;;;;;2.70;1.40;;;17.10;49.90;;;;;;5073195;28;20652;-77
2023/03/21 05:50:12;;;;;;;3.15;1.23;;;17.10;49.90;;;;;;5089587;28;20218;-77
2023/03/21 05:52:40;;;;;;;2.58;1.42;;;17.10;50.00;;;;;;5090919;28;20190;-80
2023/03/21 05:55:08;;;;;;;1.85;1.10;;;17.10;50.00;;;;;;5073315;28;20211;-75
2023/03/21 05:57:38;;;;;;;2.00;1.50;;;17.20;50.10;;;;;;5072931;28;20215;-79
2023/03/21 06:00:08;;;;;;;3.75;1.60;;;17.20;50.00;;;;;;5073164;28;20229;-75
2023/03/21 06:02:35;;;;;;;2.80;1.27;;;17.20;50.70;;;;;;5073240;28;20252;-74
2023/03/21 06:05:02;;;;;;;2.75;1.40;;;17.20;49.90;;;;;;5072836;28;20219;-73
2023/03/21 06:07:29;;;;;;;2.58;1.20;;;17.20;50.00;;;;;;5073101;28;20256;-71
2023/03/21 06:09:58;;;;;;;3.88;1.63;;;17.30;50.00;;;;;;5079699;28;20282;-74
2023/03/21 06:12:25;;;;;;;1.85;1.20;;;17.30;50.00;;;;;;5093271;28;20251;-71
2023/03/21 06:14:52;;;;;;;2.53;1.20;;;17.30;50.00;;;;;;5093579;28;20259;-76
2023/03/21 06:17:19;;;;;;;3.10;1.58;;;17.30;50.00;;;;;;5092846;28;20198;-73
2023/03/21 06:19:46;;;;;;;2.80;1.50;;;17.30;49.90;;;;;;5092898;28;20749;-75
2023/03/21 06:22:13;;;;;;;2.42;1.35;;;17.30;49.90;;;;;;5093187;28;20187;-72
2023/03/21 06:24:40;;;;;;;3.78;1.50;;;17.40;50.00;;;;;;5093427;28;20644;-69
2023/03/21 06:27:09;;;;;;;1.88;1.60;;;17.40;50.00;;;;;;5092977;28;20590;-68
2023/03/21 06:29:36;;;;;;;2.50;1.30;;;17.40;49.90;;;;;;5092574;28;20226;-77
2023/03/21 06:32:03;;;;;;;2.97;1.58;;;17.40;49.90;;;;;;5092887;28;20186;-68
2023/03/21 06:34:30;;;;;;;2.13;1.30;;;17.40;49.90;;;;;;5092714;28;20217;-69
2023/03/21 06:36:57;;;;;;;2.70;1.60;;;17.40;49.90;;;;;;5092907;28;20190;-68
2023/03/21 06:39:24;;;;;;;1.63;1.17;;;17.50;50.00;;;;;;5092558;28;20252;-70
2023/03/21 06:41:51;;;;;;;1.83;1.13;;;17.50;50.00;;;;;;5092494;28;20233;-70
2023/03/21 06:44:20;;;;;;;2.17;1.38;;;17.50;49.90;;;;;;5092500;28;20213;-69
2023/03/21 06:46:48;;;;;;;2.63;1.45;;;17.50;50.00;;;;;;5092685;28;20187;-69
2023/03/21 06:49:15;;;;;;;2.58;1.30;;;17.50;50.10;;;;;;5083345;28;20226;-69
2023/03/21 06:51:42;;;;;;;2.47;1.45;;;17.50;50.10;;;;;;5072546;28;20191;-70
2023/03/21 06:54:10;;;;;;;2.28;1.40;;;17.50;50.00;;;;;;5072055;28;20280;-67
2023/03/21 06:56:37;;;;;;;4.53;1.50;;;17.60;50.00;;;;;;5072439;28;20244;-67
2023/03/21 06:59:04;;;;;;;2.72;1.40;;;17.60;50.00;;;;;;5071937;28;20219;-70
2023/03/21 07:01:33;;;;;;;1.63;1.48;;;17.60;50.10;;;;;;5072061;28;20607;-68
2023/03/21 07:04:00;;;;;;;6.78;1.70;;;17.60;50.20;;;;;;5071892;28;20195;-72
2023/03/21 07:06:29;;;;;;;3.63;1.42;;;17.60;50.80;;;;;;5072054;28;20199;-77
2023/03/21 07:08:56;;;;;;;6.57;1.90;;;17.60;50.20;;;;;;5072250;28;20210;-77
2023/03/21 07:11:25;;;;;;;4.32;1.90;;;17.60;51.30;;;;;;5072110;28;20659;-80
2023/03/21 07:13:53;;;;;;;7.68;1.77;;;17.60;51.80;;;;;;5072271;28;20627;-79
2023/03/21 07:16:21;;;;;;;6.15;1.70;;;17.60;52.10;;;;;;5072274;28;20194;-80
2023/03/21 07:18:49;;;;;;;5.07;1.88;;;17.60;52.50;;;;;;5087290;28;20224;-79
2023/03/21 07:21:16;;;;;;;6.65;2.00;;;17.50;53.50;;;;;;5092310;28;20426;-78
2023/03/21 07:23:43;;;;;;;5.32;2.00;;;17.50;53.20;;;;;;5092410;28;20186;-71
2023/03/21 07:26:10;;;;;;;6.35;1.73;;;17.40;52.90;;;;;;5092093;28;20210;-74
2023/03/21 07:28:37;;;;;;;5.82;2.22;;;17.40;53.50;;;;;;5093520;28;20186;-78
2023/03/21 07:31:08;;;;;;;6.68;2.78;;;17.40;54.50;;;;;;5091773;28;20267;-81
2023/03/21 07:33:37;;;;;;;5.65;2.20;;;17.40;54.20;;;;;;5092605;28;20186;-83
2023/03/21 07:36:12;;;;;;;3.97;1.90;;;17.40;54.40;;;;;;5092034;28;20305;-78
2023/03/21 07:38:39;;;;;;;4.78;2.13;;;17.40;54.20;;;;;;5091747;28;20239;-79
2023/03/21 07:41:07;;;;;;;6.63;2.50;;;17.40;54.20;;;;;;5091941;28;20222;-78
2023/03/21 07:43:35;;;;;;;6.65;1.83;;;17.40;54.60;;;;;;5092061;28;20546;-79
2023/03/21 07:46:02;;;;;;;5.40;2.03;;;17.30;54.50;;;;;;5090550;28;20218;-80
2023/03/21 07:48:29;;;;;;;6.53;2.30;;;17.30;54.20;;;;;;5089185;28;20201;-79
2023/03/21 07:50:56;;;;;;;9.20;2.30;;;17.30;54.20;;;;;;5069369;28;20907;-79
2023/03/21 07:53:25;;;;;;;5.32;1.80;;;17.30;54.10;;;;;;5084768;28;20589;-80
2023/03/21 07:55:55;;;;;;;5.40;1.85;;;17.30;54.00;;;;;;5091008;28;20226;-79
2023/03/21 07:58:22;;;;;;;5.15;2.25;;;17.30;53.80;;;;;;5081062;28;20255;-79
2023/03/21 08:00:49;;;;;;;5.47;2.05;;;17.40;53.90;;;;;;5084551;28;20226;-79
2023/03/21 08:03:16;;;;;;;4.32;1.90;;;17.50;53.60;;;;;;5070768;28;20203;-79
2023/03/21 08:05:44;;;;;;;3.17;1.90;;;17.50;53.50;;;;;;5083166;28;20558;-79
2023/03/21 08:08:11;;;;;;;9.23;2.10;;;17.50;53.50;;;;;;5090772;28;20190;-79
2023/03/21 08:10:39;;;;;;;3.70;1.90;;;17.60;53.60;;;;;;5076531;28;20214;-79
2023/03/21 08:13:06;;;;;;;9.90;2.30;;;17.60;53.60;;;;;;5071006;28;20197;-79
2023/03/21 08:15:33;;;;;;;6.22;1.90;;;17.60;53.60;;;;;;5082974;28;20642;-76
2023/03/21 08:18:00;;;;;;;3.10;1.85;;;17.70;53.70;;;;;;5087367;28;20251;-79
2023/03/21 08:20:28;;;;;;;4.35;1.95;;;17.70;53.50;;;;;;5081055;28;20255;-79
2023/03/21 08:22:55;;;;;;;3.90;1.85;;;17.80;53.40;;;;;;5076657;28;20186;-78
2023/03/21 08:25:23;;;;;;;5.28;1.88;;;17.80;53.30;;;;;;5073616;28;20278;-79
2023/03/21 08:27:52;;;;;;;11.95;2.58;;;17.80;53.20;;;;;;5082351;28;20194;-79
2023/03/21 08:30:21;;;;;;;6.22;1.83;;;17.80;53.10;;;;;;5072073;28;20787;-78
2023/03/21 08:32:49;;;;;;;4.65;1.92;;;17.90;53.00;;;;;;5081645;28;20619;-79
2023/03/21 08:35:19;;;;;;;5.45;2.03;;;17.90;53.10;;;;;;5080157;28;20248;-67
2023/03/21 08:37:46;;;;;;;4.57;1.67;;;17.90;53.00;;;;;;5088702;28;20240;-72
2023/03/21 08:40:15;;;;;;;6.05;1.70;;;17.90;52.90;;;;;;5090202;28;20218;-72
2023/03/21 08:42:43;;;;;;;2.65;1.85;;;18.00;53.00;;;;;;5086916;28;20247;-72
2023/03/21 08:45:13;;;;;;;5.95;2.10;;;18.00;52.90;;;;;;5080913;28;20219;-73
2023/03/21 08:47:41;;;;;;;5.97;2.00;;;18.00;52.80;;;;;;5082781;28;20226;-73
2023/03/21 08:50:10;;;;;;;4.60;1.92;;;18.00;52.90;;;;;;5085118;28;20251;-75
2023/03/21 08:52:37;;;;;;;8.35;1.73;;;18.10;52.80;;;;;;5084521;28;20232;-77
2023/03/21 08:55:05;;;;;;;6.80;2.17;;;18.10;52.70;;;;;;5083368;28;20221;-76
2023/03/21 08:57:32;;;;;;;4.45;1.80;;;18.10;52.70;;;;;;5083327;28;20190;-72
2023/03/21 08:59:59;;;;;;;5.38;1.65;;;18.10;52.70;;;;;;5083540;28;20229;-75
2023/03/21 09:02:28;;;;;;;4.65;1.83;;;18.10;52.60;;;;;;5083672;28;20247;-78
2023/03/21 09:04:57;;;;;;;4.63;1.70;;;18.10;52.50;;;;;;5083489;28;20222;-73
2023/03/21 09:07:25;;;;;;;2.97;1.42;;;18.20;52.60;;;;;;5084295;28;20270;-77
2023/03/21 09:09:53;;;;;;;6.25;1.80;;;18.10;52.40;;;;;;5084555;28;20263;-73
2023/03/21 09:12:20;;;;;;;3.97;1.60;;;18.20;52.50;;;;;;5084011;28;20199;-76
2023/03/21 09:14:47;;;;;;;4.65;2.05;;;18.20;52.40;;;;;;5085573;28;20206;-73
2023/03/21 09:17:15;;;;;;;3.97;1.60;;;18.20;52.40;;;;;;5088481;28;20244;-73
2023/03/21 09:19:45;;;;;;;4.57;1.73;;;18.20;52.40;;;;;;5079737;28;20704;-75
2023/03/21 09:22:16;;;;;;;5.55;1.63;;;18.20;52.40;;;;;;5084805;28;20233;-72
2023/03/21 09:24:45;;;;;;;3.92;1.75;;;18.30;52.40;;;;;;5085361;28;20230;-75
2023/03/21 09:27:12;;;;;;;2.95;1.52;;;18.20;52.40;;;;;;5086496;28;20199;-75
2023/03/21 09:29:42;;;;;;;4.25;1.67;;;18.30;52.30;;;;;;5082968;28;20320;-76
2023/03/21 09:32:09;;;;;;;4.47;1.58;;;18.30;52.40;;;;;;5085092;28;20219;-78
2023/03/21 09:34:39;;;;;;;4.68;1.73;;;18.30;52.30;;;;;;5084040;28;20209;-77
2023/03/21 09:37:12;;;;;;;3.90;1.70;;;18.30;52.30;;;;;;5082899;28;20212;-76
2023/03/21 09:39:39;;;;;;;7.03;2.00;;;18.30;52.30;;;;;;5080296;28;20240;-73
2023/03/21 09:42:30;;;;;;;4.18;1.80;;;18.40;52.40;;;;;;5080991;28;20195;-72
2023/03/21 09:45:08;;;;;;;3.47;1.42;;;18.40;52.40;;;;;;5084840;28;20269;-76
2023/03/21 09:47:48;;;;;;;3.88;1.75;;;18.40;52.40;;;;;;5084415;28;20225;-73
2023/03/21 09:50:19;;;;;;;5.10;1.60;;;18.40;52.30;;;;;;5083163;28;20218;-78
2023/03/21 09:52:51;;;;;;;5.55;1.88;;;18.40;52.30;;;;;;5080297;28;20198;-77
2023/03/21 09:55:21;;;;;;;9.82;2.05;;;18.50;52.30;;;;;;5084720;28;20610;-72
2023/03/21 09:57:51;;;;;;;4.53;1.77;;;18.50;52.30;;;;;;5083840;28;20232;-69
2023/03/21 10:00:26;;;;;;;6.05;1.98;;;18.50;52.20;;;;;;5088737;28;20221;-77
2023/03/21 10:02:58;;;;;;;6.43;2.30;;;18.60;52.30;;;;;;5083989;28;20327;-74
2023/03/21 10:05:28;;;;;;;3.42;1.60;;;18.60;52.50;;;;;;5085613;28;20267;-73
2023/03/21 10:08:03;;;;;;;4.68;1.50;;;18.60;52.20;;;;;;5083304;28;20205;-73
2023/03/21 10:10:36;;;;;;;4.95;2.05;;;18.60;52.20;;;;;;5075730;28;20303;-72
2023/03/21 10:13:04;;;;;;;9.48;2.25;;;18.60;52.10;;;;;;5081206;28;20248;-72
2023/03/21 10:15:32;;;;;;;6.70;1.92;;;18.60;52.30;;;;;;5081330;28;20263;-78
2023/03/21 10:18:02;;;;;;;5.53;1.85;;;18.60;52.20;;;;;;5079644;28;20223;-75
2023/03/21 10:20:31;;;;;;;7.80;2.38;;;18.70;52.20;;;;;;5082655;28;20230;-75
2023/03/21 10:23:03;;;;;;;5.55;1.92;;;18.70;52.20;;;;;;5078804;28;20243;-80
2023/03/21 10:25:33;;;;;;;5.35;1.67;;;18.70;52.20;;;;;;5083834;28;20251;-78
2023/03/21 10:28:01;;;;;;;4.18;1.88;;;18.80;52.30;;;;;;5082386;28;20636;-77
2023/03/21 10:30:36;;;;;;;7.00;2.00;;;18.70;52.20;;;;;;5081284;28;20443;-77
2023/03/21 10:33:08;;;;;;;6.15;1.80;;;18.80;52.20;;;;;;5086301;28;20189;-80
2023/03/21 10:35:38;;;;;;;4.28;1.77;;;18.80;52.20;;;;;;5082435;28;20720;-71
2023/03/21 10:38:12;;;;;;;5.65;1.95;;;18.80;52.20;;;;;;5079884;28;20306;-76
2023/03/21 10:40:39;;;;;;;3.95;1.80;;;18.80;52.20;;;;;;5080194;28;20226;-78
2023/03/21 10:43:32;;;;;;;6.65;1.80;;;18.90;52.20;;;;;;5082537;28;20182;-71
2023/03/21 10:46:07;;;;;;;5.75;2.17;;;18.90;52.20;;;;;;5080809;28;20214;-69
2023/03/21 10:48:37;;;;;;;6.25;1.92;;;18.90;52.10;;;;;;5083837;28;20205;-68
2023/03/21 10:51:08;;;;;;;4.72;1.70;;;18.90;52.10;;;;;;5082521;28;20221;-71
2023/03/21 10:53:41;;;;;;;4.70;1.67;;;18.90;52.10;;;;;;5085615;28;20746;-69
2023/03/21 10:56:10;;;;;;;6.65;1.90;;;18.90;52.00;;;;;;5082871;28;20214;-75
2023/03/21 10:58:43;;;;;;;5.40;1.73;;;18.90;52.00;;;;;;5082173;28;20182;-80
2023/03/21 11:01:14;;;;;;;6.15;1.77;;;18.90;52.00;;;;;;5084169;28;20247;-80
2023/03/21 11:03:45;;;;;;;7.03;2.15;;;18.90;52.00;;;;;;5085186;28;20595;-81
2023/03/21 11:06:17;;;;;;;5.00;2.08;;;18.90;51.90;;;;;;5080530;28;20259;-80
2023/03/21 11:08:48;;;;;;;4.13;1.92;;;19.00;52.00;;;;;;5083932;28;20186;-78
2023/03/21 11:11:26;;;;;;;12.02;2.35;;;19.00;52.00;;;;;;5082099;28;20277;-78
2023/03/21 11:13:58;;;;;;;5.07;2.20;;;19.00;51.90;;;;;;5082109;28;20201;-77
2023/03/21 11:16:32;;;;;;;13.40;2.08;;;19.00;51.90;;;;;;5082404;28;20241;-78
2023/03/21 11:19:02;;;;;;;6.90;2.17;;;19.00;51.80;;;;;;5082330;28;20269;-78
2023/03/21 11:21:36;;;;;;;6.13;2.20;;;19.00;51.80;;;;;;5080473;28;20241;-77
2023/03/21 11:24:06;;;;;;;9.10;2.30;;;19.00;51.70;;;;;;5081934;28;20182;-77
2023/03/21 11:26:36;;;;;;;8.07;2.50;;;19.00;51.70;;;;;;5079630;28;20308;-77
2023/03/21 11:29:18;;;;;;;5.90;2.40;;;19.00;51.70;;;;;;5077822;28;20683;-78
2023/03/21 11:31:45;;;;;;;6.28;1.77;;;19.10;51.80;;;;;;5088738;28;20213;-77
2023/03/21 11:34:25;;;;;;;7.38;2.05;;;19.00;51.70;;;;;;5088750;28;20235;-77
2023/03/21 11:36:58;;;;;;;7.53;1.75;;;19.10;51.70;;;;;;5089736;28;20218;-74
2023/03/21 11:39:36;;;;;;;7.53;2.13;;;19.10;51.70;;;;;;5087220;28;20350;-78
2023/03/21 11:42:03;;;;;;;6.05;2.17;;;19.10;51.70;;;;;;5090488;28;20711;-74
2023/03/21 11:44:33;;;;;;;7.53;2.05;;;19.10;51.70;;;;;;5089095;28;20194;-78
2023/03/21 11:47:00;;;;;;;6.68;2.00;;;19.10;51.70;;;;;;5090261;28;20218;-78
2023/03/21 11:49:28;;;;;;;6.43;2.25;;;19.10;51.70;;;;;;5090084;28;20940;-78
2023/03/21 11:52:14;;;;;;;5.40;1.85;;;19.10;51.60;;;;;;5093095;28;20230;-77
2023/03/21 11:55:02;;;;;;;8.25;1.90;;;19.10;51.60;;;;;;5094816;28;20221;-77
2023/03/21 11:57:35;;;;;;;5.95;2.28;;;19.10;51.50;;;;;;5090455;28;20243;-78
2023/03/21 12:00:16;;;;;;;10.13;2.65;;;19.10;51.50;;;;;;5092906;28;20214;-76
2023/03/21 12:03:09;;;;;;;11.40;2.67;;;19.10;51.50;;;;;;5094030;28;20198;-77
2023/03/21 12:05:42;;;;;;;7.18;2.33;;;19.10;51.50;;;;;;5092356;28;20244;-76
2023/03/21 12:08:26;;;;;;;7.68;2.13;;;19.10;51.50;;;;;;5088624;28;20240;-78
2023/03/21 12:11:03;;;;;;;9.90;2.65;;;19.10;51.40;;;;;;5091108;28;20274;-79
2023/03/21 12:13:41;;;;;;;9.68;2.42;;;19.20;51.60;;;;;;5092192;28;20194;-79
2023/03/21 12:16:22;;;;;;;8.95;2.15;;;19.20;51.50;;;;;;5092186;28;20271;-75
2023/03/21 12:19:03;;;;;;;6.53;1.90;;;19.20;51.60;;;;;;5092123;28;20186;-74
2023/03/21 12:21:40;;;;;;;7.03;2.00;;;19.20;51.60;;;;;;5092849;28;20229;-77
2023/03/21 12:24:13;;;;;;;5.00;1.90;;;19.20;51.50;;;;;;5091336;28;20292;-75
2023/03/21 12:26:54;;;;;;;10.07;2.38;;;19.20;51.50;;;;;;5093130;28;20280;-79
2023/03/21 12:29:40;;;;;;;7.05;1.90;;;19.30;51.50;;;;;;5089329;28;20828;-79
2023/03/21 12:32:25;;;;;;;9.85;2.50;;;19.30;51.50;;;;;;5090489;28;20226;-79
2023/03/21 12:35:20;;;;;;;7.93;2.00;;;19.30;51.50;;;;;;5094385;28;20190;-77
2023/03/21 12:37:53;;;;;;;7.35;2.47;;;19.30;51.40;;;;;;5098574;28;20238;-78
2023/03/21 12:40:35;;;;;;;7.90;2.30;;;19.30;51.40;;;;;;5103465;28;20264;-79
2023/03/21 12:43:27;;;;;;;9.02;2.15;;;19.30;51.40;;;;;;5074364;28;20191;-78
2023/03/21 12:45:57;;;;;;;9.50;2.28;;;19.30;51.40;;;;;;5084058;28;20594;-79
2023/03/21 12:48:33;;;;;;;6.97;2.13;;;19.40;51.40;;;;;;5094685;28;20186;-78
2023/03/21 12:51:03;;;;;;;6.57;1.98;;;19.30;51.40;;;;;;5084952;28;20292;-79
2023/03/21 12:53:40;;;;;;;7.60;1.98;;;19.40;51.50;;;;;;5073699;28;20191;-78
2023/03/21 12:56:11;;;;;;;8.75;2.50;;;19.40;51.40;;;;;;5081437;28;20226;-78
2023/03/21 12:58:46;;;;;;;9.40;2.20;;;19.30;51.30;;;;;;5075169;28;20237;-77
2023/03/21 13:01:15;;;;;;;6.82;2.60;;;19.30;51.50;;;;;;5086082;28;20233;-80
2023/03/21 13:03:49;;;;;;;9.80;2.30;;;19.40;51.70;;;;;;5094628;28;20190;-78